createdAt,value
2022-12-25T00:01:49.319Z,100628.38
2022-12-25T00:04:17.119Z,100632.78
2022-12-25T00:06:45.045Z,100696.44
2022-12-25T00:09:12.877Z,100713.78
2022-12-25T00:11:40.629Z,100711.28
2022-12-25T00:14:10.123Z,100713.19
2022-12-25T00:16:38.046Z,100679.03
2022-12-25T00:19:06.052Z,100710.75
2022-12-25T00:21:34.162Z,100697.84
2022-12-25T00:24:03.458Z,100680.59
2022-12-25T00:26:31.235Z,100681.91
2022-12-25T00:28:59.607Z,100704.78
2022-12-25T00:31:28.856Z,100688.00
2022-12-25T00:33:56.781Z,100664.91
2022-12-25T00:36:25.030Z,100690.06
2022-12-25T00:38:52.821Z,100702.50
2022-12-25T00:41:43.106Z,100705.25
2022-12-25T00:44:13.775Z,100696.38
2022-12-25T00:46:43.813Z,100710.16
2022-12-25T00:49:12.619Z,100708.50
2022-12-25T00:51:40.795Z,100697.69
2022-12-25T00:54:09.007Z,100681.88
2022-12-25T00:56:36.800Z,100704.53
2022-12-25T00:59:05.017Z,100699.03
2022-12-25T01:01:34.086Z,100717.00
2022-12-25T01:04:03.376Z,100703.69
2022-12-25T01:06:31.356Z,100699.97
2022-12-25T01:09:17.024Z,100673.38
2022-12-25T01:11:45.489Z,100704.78
2022-12-25T01:14:13.701Z,100692.91
2022-12-25T01:16:41.747Z,100707.88
2022-12-25T01:19:11.731Z,100711.22
2022-12-25T01:21:40.071Z,100692.53
2022-12-25T01:24:08.435Z,100689.19
2022-12-25T01:26:36.181Z,100723.81
2022-12-25T01:29:04.268Z,100719.63
2022-12-25T01:31:32.060Z,100693.50
2022-12-25T01:33:59.870Z,100721.28
2022-12-25T01:36:28.998Z,100695.91
2022-12-25T01:38:56.818Z,100714.09
2022-12-25T01:41:26.245Z,100714.81
2022-12-25T01:44:00.296Z,100713.69
2022-12-25T01:46:28.407Z,100701.38
2022-12-25T01:48:58.983Z,100705.22
2022-12-25T01:51:31.288Z,100697.78
2022-12-25T01:54:04.592Z,100705.22
2022-12-25T01:56:34.709Z,100706.91
2022-12-25T01:59:03.873Z,100695.50
2022-12-25T02:01:31.773Z,100705.47
2022-12-25T02:04:07.742Z,100710.03
2022-12-25T02:06:37.153Z,100602.59
2022-12-25T02:09:05.295Z,100689.19
2022-12-25T02:11:50.674Z,100716.84
2022-12-25T02:14:18.495Z,100707.50
2022-12-25T02:16:58.032Z,100720.22
2022-12-25T02:19:46.998Z,100727.16
2022-12-25T02:22:28.347Z,100724.66
2022-12-25T02:25:09.041Z,100726.44
2022-12-25T02:28:06.755Z,100630.25
2022-12-25T02:30:41.708Z,100715.50
2022-12-25T02:33:33.075Z,100697.66
2022-12-25T02:36:06.716Z,100714.31
2022-12-25T02:38:39.124Z,100718.63
2022-12-25T02:41:10.315Z,100718.38
2022-12-25T02:43:59.790Z,100717.41
2022-12-25T02:46:48.007Z,100720.06
2022-12-25T02:49:37.381Z,100731.56
2022-12-25T02:52:27.671Z,100735.06
2022-12-25T02:55:18.531Z,100725.34
2022-12-25T02:58:07.141Z,100712.84
2022-12-25T03:00:58.402Z,100718.13
2022-12-25T03:03:49.244Z,100690.47
2022-12-25T03:06:37.602Z,100710.09
2022-12-25T03:09:21.147Z,100712.63
2022-12-25T03:11:55.734Z,100703.03
2022-12-25T03:14:41.448Z,100702.19
2022-12-25T03:17:10.749Z,100705.38
2022-12-25T03:19:52.719Z,100698.19
2022-12-25T03:22:42.787Z,100700.94
2022-12-25T03:25:28.087Z,100706.81
2022-12-25T03:27:58.241Z,100669.69
2022-12-25T03:30:54.959Z,100685.38
2022-12-25T03:33:46.940Z,100697.22
2022-12-25T03:36:25.087Z,100685.72
2022-12-25T03:39:17.477Z,100667.28
2022-12-25T03:42:07.723Z,100683.19
2022-12-25T03:44:59.939Z,100682.94
2022-12-25T03:47:47.915Z,100676.84
2022-12-25T03:50:38.364Z,100670.84
2022-12-25T03:53:28.839Z,100628.72
2022-12-25T03:56:15.539Z,100666.53
2022-12-25T03:59:10.055Z,100636.72
2022-12-25T04:01:55.281Z,100641.50
2022-12-25T04:04:40.586Z,100631.38
2022-12-25T04:07:35.582Z,100627.66
2022-12-25T04:10:21.141Z,100635.69
2022-12-25T04:13:06.332Z,100642.53
2022-12-25T04:15:51.607Z,100655.59
2022-12-25T04:18:36.766Z,100662.44
2022-12-25T04:21:22.761Z,100642.06
2022-12-25T04:24:09.065Z,100661.47
2022-12-25T04:26:59.548Z,100655.97
2022-12-25T04:29:45.046Z,100665.06
2022-12-25T04:32:30.276Z,100661.13
2022-12-25T04:35:15.634Z,100665.91
2022-12-25T04:37:43.394Z,100671.78
2022-12-25T04:40:12.974Z,100606.38
2022-12-25T04:42:40.964Z,100659.41
2022-12-25T04:45:10.111Z,100659.41
2022-12-25T04:47:37.981Z,100657.59
2022-12-25T04:50:06.750Z,100657.34
2022-12-25T04:52:37.036Z,100654.69
2022-12-25T04:55:06.050Z,100656.63
2022-12-25T04:57:35.604Z,100644.66
2022-12-25T05:00:03.689Z,100643.25
2022-12-25T05:02:31.593Z,100651.88
2022-12-25T05:04:59.538Z,100649.47
2022-12-25T05:07:27.360Z,100650.19
2022-12-25T05:09:55.178Z,100651.41
2022-12-25T05:12:22.985Z,100650.69
2022-12-25T05:14:52.189Z,100650.19
2022-12-25T05:17:19.969Z,100641.44
2022-12-25T05:19:47.668Z,100645.16
2022-12-25T05:22:15.431Z,100642.53
2022-12-25T05:24:43.219Z,100639.38
2022-12-25T05:27:10.954Z,100629.78
2022-12-25T05:29:38.669Z,100616.84
2022-12-25T05:32:07.885Z,100612.53
2022-12-25T05:34:35.606Z,100611.34
2022-12-25T05:37:03.469Z,100606.78
2022-12-25T05:39:31.222Z,100602.75
2022-12-25T05:41:59.003Z,100590.53
2022-12-25T05:44:26.737Z,100586.47
2022-12-25T05:46:54.506Z,100607.19
2022-12-25T05:49:23.775Z,100611.34
2022-12-25T05:51:51.554Z,100608.72
2022-12-25T05:54:19.286Z,100610.72
2022-12-25T05:56:47.124Z,100602.81
2022-12-25T05:59:14.851Z,100606.03
2022-12-25T06:01:42.617Z,100607.72
2022-12-25T06:04:13.015Z,100605.19
2022-12-25T06:06:44.182Z,100602.69
2022-12-25T06:09:13.412Z,100599.34
2022-12-25T06:11:41.546Z,100583.16
2022-12-25T06:14:12.329Z,100582.91
2022-12-25T06:16:40.289Z,100582.66
2022-12-25T06:19:08.559Z,100569.41
2022-12-25T06:21:36.345Z,100577.03
2022-12-25T06:24:05.928Z,100591.53
2022-12-25T06:26:33.887Z,100582.19
2022-12-25T06:29:01.669Z,100556.72
2022-12-25T06:31:29.612Z,100579.06
2022-12-25T06:33:57.480Z,100566.50
2022-12-25T06:36:29.307Z,100574.38
2022-12-25T06:39:02.962Z,100567.28
2022-12-25T06:41:32.537Z,100568.97
2022-12-25T06:44:02.400Z,100557.81
2022-12-25T06:46:31.783Z,100529.63
2022-12-25T06:49:00.410Z,100518.25
2022-12-25T06:51:29.871Z,100519.59
2022-12-25T06:53:57.740Z,100538.47
2022-12-25T06:56:29.702Z,100471.59
2022-12-25T06:59:01.194Z,100543.47
2022-12-25T07:01:31.163Z,100549.31
2022-12-25T07:04:07.822Z,100544.88
2022-12-25T07:06:35.710Z,100537.56
2022-12-25T07:09:03.878Z,100500.16
2022-12-25T07:11:31.700Z,100497.84
2022-12-25T07:14:00.997Z,100496.03
2022-12-25T07:16:31.532Z,100447.84
2022-12-25T07:19:00.500Z,100496.16
2022-12-25T07:21:28.576Z,100474.84
2022-12-25T07:23:56.348Z,100491.84
2022-12-25T07:26:24.097Z,100503.13
2022-12-25T07:28:51.827Z,100506.00
2022-12-25T07:31:21.100Z,100500.16
2022-12-25T07:33:49.011Z,100484.69
2022-12-25T07:36:16.971Z,100486.94
2022-12-25T07:38:45.254Z,100489.34
2022-12-25T07:41:13.913Z,100484.19
2022-12-25T07:43:42.447Z,100399.38
2022-12-25T07:46:11.267Z,100483.94
2022-12-25T07:48:40.447Z,100455.97
2022-12-25T07:51:12.037Z,100479.38
2022-12-25T07:53:40.187Z,100399.94
2022-12-25T07:56:11.322Z,100492.94
2022-12-25T07:58:39.695Z,100489.59
2022-12-25T08:01:09.803Z,100487.28
2022-12-25T08:03:38.443Z,100487.69
2022-12-25T08:06:10.222Z,100473.41
2022-12-25T08:08:40.098Z,100462.56
2022-12-25T08:11:08.705Z,100476.88
2022-12-25T08:13:36.969Z,100483.25
2022-12-25T08:16:07.846Z,100462.72
2022-12-25T08:18:36.300Z,100467.28
2022-12-25T08:21:05.447Z,100464.13
2022-12-25T08:23:37.043Z,100466.53
2022-12-25T08:26:08.288Z,100474.44
2022-12-25T08:28:36.976Z,100457.63
2022-12-25T08:31:10.331Z,100425.47
2022-12-25T08:33:38.763Z,100420.22
2022-12-25T08:36:08.423Z,100423.56
2022-12-25T08:38:38.416Z,100422.59
2022-12-25T08:41:06.557Z,100436.66
2022-12-25T08:43:34.297Z,100444.44
2022-12-25T08:46:02.169Z,100409.44
2022-12-25T08:48:30.035Z,100468.88
2022-12-25T08:50:58.382Z,100473.59
2022-12-25T08:53:26.334Z,100447.25
2022-12-25T08:56:00.277Z,100481.09
2022-12-25T08:58:28.519Z,100468.94
2022-12-25T09:00:56.626Z,100464.47
2022-12-25T09:03:25.284Z,100461.41
2022-12-25T09:05:53.569Z,100454.88
2022-12-25T09:08:22.299Z,100456.81
2022-12-25T09:10:50.379Z,100452.63
2022-12-25T09:13:19.541Z,100443.63
2022-12-25T09:15:47.380Z,100447.94
2022-12-25T09:18:15.186Z,100455.84
2022-12-25T09:20:42.907Z,100454.44
2022-12-25T09:23:13.997Z,100451.09
2022-12-25T09:25:42.348Z,100444.16
2022-12-25T09:28:10.183Z,100418.53
2022-12-25T09:30:39.573Z,100440.13
2022-12-25T09:33:07.540Z,100471.97
2022-12-25T09:35:35.673Z,100471.56
2022-12-25T09:38:03.529Z,100471.69
2022-12-25T09:40:32.998Z,100471.97
2022-12-25T09:43:01.861Z,100486.84
2022-12-25T09:45:33.912Z,100486.56
2022-12-25T09:48:03.396Z,100496.44
2022-12-25T09:50:40.840Z,100481.09
2022-12-25T09:53:14.014Z,100493.63
2022-12-25T09:55:47.229Z,100502.69
2022-12-25T09:58:15.010Z,100494.06
2022-12-25T10:00:48.269Z,100492.25
2022-12-25T10:03:33.663Z,100482.38
2022-12-25T10:06:18.510Z,100461.41
2022-12-25T10:09:04.093Z,100461.38
2022-12-25T10:11:47.906Z,100477.94
2022-12-25T10:14:26.715Z,100484.78
2022-12-25T10:17:12.956Z,100484.66
2022-12-25T10:19:50.028Z,100469.75
2022-12-25T10:22:25.009Z,100455.53
2022-12-25T10:24:55.748Z,100446.97
2022-12-25T10:27:33.827Z,100443.38
2022-12-25T10:30:02.841Z,100434.47
2022-12-25T10:32:30.751Z,100445.03
2022-12-25T10:34:59.957Z,100391.44
2022-12-25T10:37:27.719Z,100412.47
2022-12-25T10:39:55.422Z,100427.25
2022-12-25T10:42:32.023Z,100415.03
2022-12-25T10:45:01.365Z,100399.19
2022-12-25T10:47:32.080Z,100409.75
2022-12-25T10:50:08.625Z,100389.16
2022-12-25T10:52:36.829Z,100405.69
2022-12-25T10:55:24.954Z,100408.47
2022-12-25T10:57:57.731Z,100415.03
2022-12-25T11:00:27.667Z,100408.06
2022-12-25T11:02:56.142Z,100413.09
2022-12-25T11:05:29.232Z,100406.81
2022-12-25T11:07:59.520Z,100397.25
2022-12-25T11:10:33.327Z,100381.66
2022-12-25T11:13:02.802Z,100368.47
2022-12-25T11:15:37.907Z,100358.88
2022-12-25T11:18:18.594Z,100338.59
2022-12-25T11:20:51.370Z,100315.66
2022-12-25T11:23:21.199Z,100283.53
2022-12-25T11:25:57.173Z,100262.13
2022-12-25T11:28:26.319Z,100302.19
2022-12-25T11:30:58.857Z,100290.78
2022-12-25T11:33:33.855Z,100265.50
2022-12-25T11:36:09.859Z,100267.16
2022-12-25T11:38:37.586Z,100275.63
2022-12-25T11:41:06.996Z,100197.13
2022-12-25T11:43:40.181Z,100254.78
2022-12-25T11:46:15.619Z,100213.50
2022-12-25T11:48:48.198Z,100240.47
2022-12-25T11:51:18.999Z,100241.44
2022-12-25T11:53:52.761Z,100237.97
2022-12-25T11:56:24.015Z,100230.19
2022-12-25T11:58:54.581Z,100221.97
2022-12-25T12:01:30.398Z,100216.69
2022-12-25T12:04:00.612Z,100217.13
2022-12-25T12:06:37.474Z,100198.22
2022-12-25T12:09:27.986Z,100204.63
2022-12-25T12:12:02.273Z,100205.88
2022-12-25T12:14:44.399Z,100185.84
2022-12-25T12:17:14.236Z,100206.56
2022-12-25T12:19:42.037Z,100193.78
2022-12-25T12:22:20.092Z,100208.06
2022-12-25T12:24:54.372Z,100208.91
2022-12-25T12:27:27.713Z,100198.47
2022-12-25T12:29:58.402Z,100200.13
2022-12-25T12:32:38.687Z,100203.75
2022-12-25T12:35:10.559Z,100186.81
2022-12-25T12:37:41.362Z,100187.78
2022-12-25T12:40:26.489Z,100199.31
2022-12-25T12:42:54.340Z,100155.97
2022-12-25T12:45:28.247Z,100153.19
2022-12-25T12:47:56.993Z,100190.69
2022-12-25T12:50:34.752Z,100184.28
2022-12-25T12:53:31.220Z,100185.97
2022-12-25T12:56:10.784Z,100189.13
2022-12-25T12:58:45.198Z,100182.19
2022-12-25T13:01:29.995Z,100168.97
2022-12-25T13:04:24.572Z,100163.41
2022-12-25T13:06:59.256Z,100158.81
2022-12-25T13:09:39.523Z,100163.13
2022-12-25T13:12:08.965Z,100134.50
2022-12-25T13:14:37.938Z,100133.97
2022-12-25T13:17:08.850Z,100144.22
2022-12-25T13:19:38.183Z,100134.47
2022-12-25T13:22:07.504Z,100102.56
2022-12-25T13:24:38.195Z,100132.53
2022-12-25T13:27:23.785Z,100150.91
2022-12-25T13:29:51.693Z,100150.31
2022-12-25T13:32:24.320Z,100150.19
2022-12-25T13:34:53.059Z,100150.88
2022-12-25T13:37:22.942Z,100148.91
2022-12-25T13:39:55.767Z,100138.34
2022-12-25T13:42:27.172Z,100131.38
2022-12-25T13:44:56.919Z,100145.00
2022-12-25T13:47:28.018Z,100148.47
2022-12-25T13:49:57.976Z,100156.94
2022-12-25T13:52:33.320Z,100161.09
2022-12-25T13:55:04.120Z,100157.63
2022-12-25T13:57:36.052Z,100134.66
2022-12-25T14:00:05.436Z,100122.19
2022-12-25T14:02:37.169Z,100127.28
2022-12-25T14:05:05.749Z,100130.06
2022-12-25T14:07:34.763Z,100138.84
2022-12-25T14:10:05.122Z,100080.59
2022-12-25T14:12:33.993Z,100157.75
2022-12-25T14:15:02.204Z,100166.66
2022-12-25T14:17:30.132Z,100159.28
2022-12-25T14:20:06.027Z,100160.53
2022-12-25T14:22:38.346Z,100164.69
2022-12-25T14:25:15.698Z,100158.41
2022-12-25T14:27:50.292Z,100163.56
2022-12-25T14:30:19.378Z,100121.38
2022-12-25T14:32:51.791Z,100152.16
2022-12-25T14:35:23.480Z,100154.66
2022-12-25T14:37:57.156Z,100151.84
2022-12-25T14:40:30.400Z,100155.47
2022-12-25T14:43:00.942Z,100157.16
2022-12-25T14:45:32.144Z,100161.47
2022-12-25T14:48:04.146Z,100168.28
2022-12-25T14:50:36.466Z,100162.34
2022-12-25T14:53:04.585Z,100165.06
2022-12-25T14:55:33.798Z,100157.56
2022-12-25T14:58:05.523Z,100154.63
2022-12-25T15:00:36.364Z,100147.66
2022-12-25T15:03:07.026Z,100136.09
2022-12-25T15:05:37.012Z,100137.09
2022-12-25T15:08:22.263Z,100145.72
2022-12-25T15:11:01.834Z,100119.75
2022-12-25T15:13:31.808Z,100143.22
2022-12-25T15:16:04.307Z,100147.38
2022-12-25T15:18:37.681Z,100130.84
2022-12-25T15:21:05.696Z,100125.28
2022-12-25T15:23:33.545Z,100133.16
2022-12-25T15:26:02.704Z,100067.97
2022-12-25T15:28:30.592Z,100121.22
2022-12-25T15:30:58.444Z,100119.84
2022-12-25T15:33:26.212Z,100138.22
2022-12-25T15:35:54.236Z,100096.84
2022-12-25T15:38:22.012Z,100081.88
2022-12-25T15:40:49.808Z,100127.34
2022-12-25T15:43:41.377Z,100102.38
2022-12-25T15:46:10.491Z,100120.94
2022-12-25T15:48:38.287Z,100106.69
2022-12-25T15:51:06.394Z,100121.72
2022-12-25T15:53:34.182Z,100131.34
2022-12-25T15:56:01.885Z,100115.94
2022-12-25T15:58:31.096Z,100116.16
2022-12-25T16:00:58.851Z,100120.63
2022-12-25T16:03:26.905Z,100080.91
2022-12-25T16:05:55.360Z,100107.84
2022-12-25T16:08:23.685Z,100034.47
2022-12-25T16:10:53.243Z,100020.47
2022-12-25T16:13:21.224Z,100109.81
2022-12-25T16:15:50.324Z,100099.53
2022-12-25T16:18:18.072Z,100097.28
2022-12-25T16:20:45.884Z,100094.78
2022-12-25T16:23:13.759Z,100093.94
2022-12-25T16:25:41.497Z,100022.94
2022-12-25T16:28:10.322Z,100097.13
2022-12-25T16:30:39.737Z,100091.44
2022-12-25T16:33:10.820Z,100094.50
2022-12-25T16:35:38.731Z,100100.56
2022-12-25T16:38:06.764Z,100104.31
2022-12-25T16:40:35.107Z,100109.44
2022-12-25T16:43:02.889Z,100110.81
2022-12-25T16:45:31.107Z,100115.97
2022-12-25T16:47:58.902Z,100119.44
2022-12-25T16:50:28.056Z,100121.09
2022-12-25T16:52:55.894Z,100113.84
2022-12-25T16:55:29.452Z,100088.28
2022-12-25T16:57:58.296Z,100105.47
2022-12-25T17:00:26.451Z,100103.66
2022-12-25T17:02:54.684Z,100068.84
2022-12-25T17:05:22.547Z,100111.28
2022-12-25T17:07:51.960Z,100112.97
2022-12-25T17:10:21.315Z,100114.91
2022-12-25T17:12:49.255Z,100094.63
2022-12-25T17:15:17.265Z,100114.63
2022-12-25T17:17:45.063Z,100112.97
2022-12-25T17:20:13.611Z,100109.91
2022-12-25T17:22:41.370Z,100058.50
2022-12-25T17:25:11.126Z,100097.75
2022-12-25T17:27:38.840Z,100117.56
2022-12-25T17:30:08.081Z,100104.63
2022-12-25T17:32:36.060Z,100111.28
2022-12-25T17:35:03.827Z,100112.97
2022-12-25T17:37:32.220Z,100112.97
2022-12-25T17:39:59.976Z,100105.72
2022-12-25T17:42:29.181Z,100118.63
2022-12-25T17:44:57.054Z,100109.00
2022-12-25T17:47:24.872Z,100114.00
2022-12-25T17:49:52.640Z,100111.34
2022-12-25T17:52:20.435Z,100122.78
2022-12-25T17:54:48.321Z,100084.75
2022-12-25T17:57:16.067Z,100117.03
2022-12-25T17:59:45.153Z,100120.38
2022-12-25T18:02:13.044Z,100122.63
2022-12-25T18:04:40.904Z,100118.03
2022-12-25T18:07:08.700Z,100120.97
2022-12-25T18:09:37.214Z,100115.66
2022-12-25T18:12:05.484Z,100117.19
2022-12-25T18:14:33.257Z,100113.16
2022-12-25T18:17:03.457Z,100102.84
2022-12-25T18:19:31.308Z,100104.50
2022-12-25T18:21:59.044Z,100099.88
2022-12-25T18:24:26.797Z,100101.69
2022-12-25T18:26:54.655Z,100108.13
2022-12-25T18:29:22.444Z,100095.56
2022-12-25T18:31:50.320Z,100091.72
2022-12-25T18:34:19.695Z,100068.13
2022-12-25T18:36:47.663Z,100092.53
2022-12-25T18:39:15.711Z,100096.31
2022-12-25T18:41:58.014Z,100107.06
2022-12-25T18:44:25.737Z,100105.78
2022-12-25T18:46:53.828Z,100095.78
2022-12-25T18:49:23.000Z,100106.47
2022-12-25T18:51:50.787Z,100058.91
2022-12-25T18:54:19.238Z,100113.41
2022-12-25T18:56:52.124Z,100113.97
2022-12-25T18:59:21.074Z,100109.50
2022-12-25T19:01:49.036Z,100110.63
2022-12-25T19:04:17.129Z,100107.28
2022-12-25T19:06:46.384Z,100096.63
2022-12-25T19:09:14.324Z,100101.47
2022-12-25T19:11:46.448Z,100091.84
2022-12-25T19:14:15.231Z,100084.69
2022-12-25T19:16:43.217Z,100103.41
2022-12-25T19:19:11.222Z,100115.38
2022-12-25T19:21:39.167Z,100107.28
2022-12-25T19:24:08.687Z,100104.41
2022-12-25T19:26:37.607Z,100111.22
2022-12-25T19:29:05.886Z,100114.84
2022-12-25T19:31:33.709Z,100101.41
2022-12-25T19:34:01.759Z,100101.41
2022-12-25T19:36:29.692Z,100113.16
2022-12-25T19:38:57.516Z,100112.66
2022-12-25T19:41:26.636Z,100068.69
2022-12-25T19:43:54.422Z,100127.34
2022-12-25T19:46:24.684Z,100129.97
2022-12-25T19:48:53.173Z,100139.59
2022-12-25T19:51:23.636Z,100131.50
2022-12-25T19:53:52.185Z,100128.00
2022-12-25T19:56:20.619Z,100130.13
2022-12-25T19:58:49.751Z,100141.25
2022-12-25T20:01:20.294Z,100138.75
2022-12-25T20:03:48.407Z,100142.91
2022-12-25T20:06:19.747Z,100135.63
2022-12-25T20:08:48.148Z,100136.59
2022-12-25T20:11:16.487Z,100144.56
2022-12-25T20:13:44.403Z,100133.66
2022-12-25T20:16:13.946Z,100131.16
2022-12-25T20:18:42.137Z,100125.72
2022-12-25T20:21:14.183Z,100112.03
2022-12-25T20:23:42.648Z,100122.03
2022-12-25T20:26:11.768Z,100126.19
2022-12-25T20:28:40.229Z,100133.22
2022-12-25T20:31:09.421Z,100124.59
2022-12-25T20:33:38.669Z,100133.31
2022-12-25T20:36:07.699Z,100075.13
2022-12-25T20:38:36.983Z,100120.91
2022-12-25T20:43:54.991Z,100103.97
2022-12-25T20:46:23.552Z,100122.19
2022-12-25T20:48:53.198Z,100140.47
2022-12-25T20:51:23.208Z,100135.78
2022-12-25T20:53:51.832Z,100128.06
2022-12-25T20:56:22.535Z,100130.72
2022-12-25T20:58:54.310Z,100100.75
2022-12-25T21:01:22.257Z,100129.88
2022-12-25T21:03:50.222Z,100127.91
2022-12-25T21:06:19.445Z,100116.66
2022-12-25T21:08:48.149Z,100125.28
2022-12-25T21:11:17.608Z,100114.91
2022-12-25T21:13:46.730Z,100125.13
2022-12-25T21:16:18.547Z,100133.75
2022-12-25T21:18:46.885Z,100140.56
2022-12-25T21:21:15.740Z,100132.63
2022-12-25T21:23:45.565Z,100134.59
2022-12-25T21:26:16.779Z,100132.78
2022-12-25T21:28:44.875Z,100136.09
2022-12-25T21:31:12.786Z,100136.78
2022-12-25T21:33:51.950Z,100143.72
2022-12-25T21:36:24.318Z,100143.22
2022-12-25T21:38:58.732Z,100124.59
2022-12-25T21:41:27.529Z,100150.75
2022-12-25T21:43:56.173Z,100164.59
2022-12-25T21:46:24.459Z,100142.13
2022-12-25T21:48:52.352Z,100168.38
2022-12-25T21:51:39.556Z,100176.31
2022-12-25T21:54:09.699Z,100164.38
2022-12-25T21:56:44.021Z,100168.22
2022-12-25T21:59:14.811Z,100164.22
2022-12-25T22:01:42.701Z,100134.13
2022-12-25T22:04:12.824Z,100164.22
2022-12-25T22:06:58.494Z,100152.72
2022-12-25T22:09:27.747Z,100167.53
2022-12-25T22:12:13.139Z,100163.06
2022-12-25T22:14:57.870Z,100169.59
2022-12-25T22:17:44.640Z,100160.38
2022-12-25T22:20:15.281Z,100166.81
2022-12-25T22:22:43.411Z,100165.81
2022-12-25T22:25:13.711Z,100171.81
2022-12-25T22:27:43.336Z,100182.09
2022-12-25T22:30:13.809Z,100175.13
2022-12-25T22:32:41.685Z,100198.19
2022-12-25T22:35:12.479Z,100197.34
2022-12-25T22:37:41.151Z,100163.25
2022-12-25T22:40:12.786Z,100199.56
2022-12-25T22:42:41.562Z,100182.59
2022-12-25T22:45:10.807Z,100160.38
2022-12-25T22:47:38.659Z,100173.22
2022-12-25T22:50:07.205Z,100202.66
2022-12-25T22:52:35.138Z,100221.13
2022-12-25T22:55:02.939Z,100213.22
2022-12-25T22:57:32.079Z,100141.53
2022-12-25T22:59:59.913Z,100220.19
2022-12-25T23:02:27.958Z,100224.81
2022-12-25T23:04:55.841Z,100227.44
2022-12-25T23:07:23.590Z,100228.81
2022-12-25T23:09:53.071Z,100237.47
2022-12-25T23:12:38.166Z,100230.50
2022-12-25T23:15:08.600Z,100236.03
2022-12-25T23:17:54.592Z,100236.25
2022-12-25T23:20:39.761Z,100245.66
2022-12-25T23:23:25.007Z,100223.72
2022-12-25T23:26:11.260Z,100226.19
2022-12-25T23:28:58.420Z,100236.00
2022-12-25T23:31:31.478Z,100257.34
2022-12-25T23:33:59.537Z,100246.59
2022-12-25T23:36:28.093Z,100256.66
2022-12-25T23:38:55.886Z,100251.50
2022-12-25T23:41:23.705Z,100250.66
2022-12-25T23:43:51.903Z,100250.81
2022-12-25T23:46:20.142Z,100239.53
2022-12-25T23:48:49.304Z,100226.72
2022-12-25T23:51:17.987Z,100238.75
2022-12-25T23:53:45.800Z,100232.91
2022-12-25T23:56:13.611Z,100231.03
2022-12-25T23:58:41.518Z,100239.28
